Boo Sonier — WDG3281 — position and weather

sailwx.info

Track history (hours):
 
Tides and Currents Weather Stations Pressure Air Temp Water Temp Dewpoint Dewpoint Depression Visibility Wind Speed Wind Dir Waves Ship Positions

Boo Sonier

Owner: LeBeouf Bros. Towing, LLC, Houma, LA. More information available from US FCC via Universal Licensing System and Coast Guard Vessel Documentation Center.

Last reported at 2017-Feb-14 06:28 UTC. Time now 2017-Feb-21 10:04 UTC.
Position N 29°34' W 090°34'.

Length 21 m.

Type: Tug. MMSI: 367524420.

Date/timePositionNaut miles runAvg speedWind from/ knotsBaromVisibWave heightAir tempDewpointWater temp
2017-Feb-14 06:28N 29°34' W 090°34'2 2.0
2017-Feb-14 05:28N 29°35' W 090°36'0 0.3
2017-Feb-14 04:06N 29°34' W 090°36'0 0.7
2017-Feb-14 03:33N 29°35' W 090°36'3 3.0
2017-Feb-14 02:33N 29°36' W 090°39'3 3.3
2017-Feb-14 01:33N 29°35' W 090°43'3 3.3
2017-Feb-14 00:33N 29°33' W 090°45'5 4.5
2017-Feb-13 23:33N 29°32' W 090°51'7 6.5
2017-Feb-13 22:26N 29°35' W 090°58'  
2017-Feb-11 17:06N 29°32' W 090°50'4 7.3
2017-Feb-11 16:33N 29°32' W 090°46'6 5.6
2017-Feb-11 15:33N 29°37' W 090°42'5 5.5
2017-Feb-11 14:33N 29°35' W 090°36'0 0.2
2017-Feb-11 12:32N 29°34' W 090°36'0 0.0
2017-Feb-11 10:14N 29°34' W 090°36'0 0.7
2017-Feb-11 09:33N 29°35' W 090°36'3 3.0
2017-Feb-11 08:33N 29°36' W 090°39'3 2.4
2017-Feb-11 07:31N 29°37' W 090°42'0 0.0
2017-Feb-11 06:31N 29°37' W 090°42'0 0.0
2017-Feb-11 05:31N 29°37' W 090°42'0 0.0
2017-Feb-11 04:31N 29°37' W 090°42'0 0.0
2017-Feb-11 03:31N 29°37' W 090°42'0 0.0
2017-Feb-11 02:31N 29°37' W 090°42'0 0.0
2017-Feb-11 01:31N 29°37' W 090°42'0 0.0
2017-Feb-11 00:31N 29°37' W 090°42'0 0.0
2017-Feb-10 23:31N 29°37' W 090°42'0 0.0
2017-Feb-10 22:28N 29°37' W 090°42'0 0.0
2017-Feb-10 21:31N 29°37' W 090°42'0 0.0
2017-Feb-10 20:31N 29°37' W 090°42'4 4.2
2017-Feb-10 19:33N 29°35' W 090°38'2 1.9
2017-Feb-10 18:33N 29°34' W 090°36'0 0.0
2017-Feb-10 17:33N 29°34' W 090°36'0 0.3
2017-Feb-10 16:30N 29°35' W 090°36'0 0.2
2017-Feb-10 15:29N 29°35' W 090°36'1 0.3
2017-Feb-10 13:30N 29°34' W 090°36'0 0.0
2017-Feb-10 06:17N 29°34' W 090°36'0 0.0
2017-Feb-10 05:17N 29°34' W 090°36'0 0.0
2017-Feb-10 04:23N 29°34' W 090°36'0 0.0
2017-Feb-10 03:23N 29°34' W 090°36'0 0.0
2017-Feb-10 02:23N 29°34' W 090°36'0 0.0
2017-Feb-10 01:29N 29°34' W 090°36'0 0.0
2017-Feb-09 17:27N 29°34' W 090°36'0 0.3
2017-Feb-09 16:29N 29°35' W 090°36'0 0.0
2017-Feb-09 15:23N 29°35' W 090°36'0 0.0
2017-Feb-09 14:29N 29°35' W 090°36'0 0.1
2017-Feb-09 11:25N 29°34' W 090°36'0 0.0
2017-Feb-09 10:31N 29°34' W 090°36'0 0.0
2017-Feb-09 09:31N 29°34' W 090°36'0 0.0
2017-Feb-09 08:31N 29°34' W 090°36'0 0.0
2017-Feb-09 07:31N 29°34' W 090°36'0 0.0
2017-Feb-09 05:31N 29°34' W 090°36'0 0.0
2017-Feb-09 04:13N 29°34' W 090°36'0 0.0
2017-Feb-09 03:31N 29°34' W 090°36'0 0.0
2017-Feb-09 02:25N 29°34' W 090°36'0 0.0
2017-Feb-09 00:25N 29°34' W 090°36'0 0.0
2017-Feb-08 22:31N 29°34' W 090°36'0 0.0
2017-Feb-08 19:13N 29°34' W 090°36'0 0.0
2017-Feb-08 18:31N 29°34' W 090°36'0 0.0
2017-Feb-08 17:31N 29°34' W 090°36'0 0.0
2017-Feb-08 16:31N 29°34' W 090°36'0 0.0
2017-Feb-08 15:25N 29°34' W 090°36'0 0.0
2017-Feb-08 14:19N 29°34' W 090°36'0 0.0
2017-Feb-08 12:07N 29°34' W 090°36'0 0.0
2017-Feb-08 11:25N 29°34' W 090°36'0 0.0
2017-Feb-08 10:25N 29°34' W 090°36'0 0.0
2017-Feb-08 09:31N 29°34' W 090°36'0 0.0
2017-Feb-08 08:31N 29°34' W 090°36'0 0.0
2017-Feb-08 07:31N 29°34' W 090°36'0 0.0
2017-Feb-08 06:31N 29°34' W 090°36'0 0.0
2017-Feb-08 05:31N 29°34' W 090°36'0 0.4
2017-Feb-08 04:29N 29°35' W 090°36'2 1.6
2017-Feb-08 03:33N 29°34' W 090°34'  
Track history (hours):
 
Tides and Currents Weather Stations Pressure Air Temp Water Temp Dewpoint Dewpoint Depression Visibility Wind Speed Wind Dir Waves Ship Positions

Boo Sonier

Owner: LeBeouf Bros. Towing, LLC, Houma, LA. More information available from US FCC via Universal Licensing System and Coast Guard Vessel Documentation Center.

Last reported at 2017-Feb-14 06:28 UTC. Time now 2017-Feb-21 10:04 UTC.
Position N 29°34' W 090°34'.

Length 21 m.

Type: Tug. MMSI: 367524420.

Date/timePositionNaut miles runAvg speedWind from/ knotsBaromVisibWave heightAir tempDewpointWater temp
2017-Feb-14 06:28N 29°34' W 090°34'2 2.0
2017-Feb-14 05:28N 29°35' W 090°36'0 0.3
2017-Feb-14 04:06N 29°34' W 090°36'0 0.7
2017-Feb-14 03:33N 29°35' W 090°36'3 3.0
2017-Feb-14 02:33N 29°36' W 090°39'3 3.3
2017-Feb-14 01:33N 29°35' W 090°43'3 3.3
2017-Feb-14 00:33N 29°33' W 090°45'5 4.5
2017-Feb-13 23:33N 29°32' W 090°51'7 6.5
2017-Feb-13 22:26N 29°35' W 090°58'  
2017-Feb-11 17:06N 29°32' W 090°50'4 7.3
2017-Feb-11 16:33N 29°32' W 090°46'6 5.6
2017-Feb-11 15:33N 29°37' W 090°42'5 5.5
2017-Feb-11 14:33N 29°35' W 090°36'0 0.2
2017-Feb-11 12:32N 29°34' W 090°36'0 0.0
2017-Feb-11 10:14N 29°34' W 090°36'0 0.7
2017-Feb-11 09:33N 29°35' W 090°36'3 3.0
2017-Feb-11 08:33N 29°36' W 090°39'3 2.4
2017-Feb-11 07:31N 29°37' W 090°42'0 0.0
2017-Feb-11 06:31N 29°37' W 090°42'0 0.0
2017-Feb-11 05:31N 29°37' W 090°42'0 0.0
2017-Feb-11 04:31N 29°37' W 090°42'0 0.0
2017-Feb-11 03:31N 29°37' W 090°42'0 0.0
2017-Feb-11 02:31N 29°37' W 090°42'0 0.0
2017-Feb-11 01:31N 29°37' W 090°42'0 0.0
2017-Feb-11 00:31N 29°37' W 090°42'0 0.0
2017-Feb-10 23:31N 29°37' W 090°42'0 0.0
2017-Feb-10 22:28N 29°37' W 090°42'0 0.0
2017-Feb-10 21:31N 29°37' W 090°42'0 0.0
2017-Feb-10 20:31N 29°37' W 090°42'4 4.2
2017-Feb-10 19:33N 29°35' W 090°38'2 1.9
2017-Feb-10 18:33N 29°34' W 090°36'0 0.0
2017-Feb-10 17:33N 29°34' W 090°36'0 0.3
2017-Feb-10 16:30N 29°35' W 090°36'0 0.2
2017-Feb-10 15:29N 29°35' W 090°36'1 0.3
2017-Feb-10 13:30N 29°34' W 090°36'0 0.0
2017-Feb-10 06:17N 29°34' W 090°36'0 0.0
2017-Feb-10 05:17N 29°34' W 090°36'0 0.0
2017-Feb-10 04:23N 29°34' W 090°36'0 0.0
2017-Feb-10 03:23N 29°34' W 090°36'0 0.0
2017-Feb-10 02:23N 29°34' W 090°36'0 0.0
2017-Feb-10 01:29N 29°34' W 090°36'0 0.0
2017-Feb-09 17:27N 29°34' W 090°36'0 0.3
2017-Feb-09 16:29N 29°35' W 090°36'0 0.0
2017-Feb-09 15:23N 29°35' W 090°36'0 0.0
2017-Feb-09 14:29N 29°35' W 090°36'0 0.1
2017-Feb-09 11:25N 29°34' W 090°36'0 0.0
2017-Feb-09 10:31N 29°34' W 090°36'0 0.0
2017-Feb-09 09:31N 29°34' W 090°36'0 0.0
2017-Feb-09 08:31N 29°34' W 090°36'0 0.0
2017-Feb-09 07:31N 29°34' W 090°36'0 0.0
2017-Feb-09 05:31N 29°34' W 090°36'0 0.0
2017-Feb-09 04:13N 29°34' W 090°36'0 0.0
2017-Feb-09 03:31N 29°34' W 090°36'0 0.0
2017-Feb-09 02:25N 29°34' W 090°36'0 0.0
2017-Feb-09 00:25N 29°34' W 090°36'0 0.0
2017-Feb-08 22:31N 29°34' W 090°36'0 0.0
2017-Feb-08 19:13N 29°34' W 090°36'0 0.0
2017-Feb-08 18:31N 29°34' W 090°36'0 0.0
2017-Feb-08 17:31N 29°34' W 090°36'0 0.0
2017-Feb-08 16:31N 29°34' W 090°36'0 0.0
2017-Feb-08 15:25N 29°34' W 090°36'0 0.0
2017-Feb-08 14:19N 29°34' W 090°36'0 0.0
2017-Feb-08 12:07N 29°34' W 090°36'0 0.0
2017-Feb-08 11:25N 29°34' W 090°36'0 0.0
2017-Feb-08 10:25N 29°34' W 090°36'0 0.0
2017-Feb-08 09:31N 29°34' W 090°36'0 0.0
2017-Feb-08 08:31N 29°34' W 090°36'0 0.0
2017-Feb-08 07:31N 29°34' W 090°36'0 0.0
2017-Feb-08 06:31N 29°34' W 090°36'0 0.0
2017-Feb-08 05:31N 29°34' W 090°36'0 0.4
2017-Feb-08 04:29N 29°35' W 090°36'2 1.6
2017-Feb-08 03:33N 29°34' W 090°34'  

Dump ship's entire track history